sensor_id;sensor_type;location;lat;lon;timestamp;pressure;altitude;pressure_sealevel;temperature;humidity
25560;BME280;13450;49.374;8.584;2023-02-28T00:01:30;101482.19;;;-0.99;98.10
25560;BME280;13450;49.374;8.584;2023-02-28T00:03:56;101484.88;;;-1.01;98.24
25560;BME280;13450;49.374;8.584;2023-02-28T00:06:21;101485.22;;;-1.07;97.99
25560;BME280;13450;49.374;8.584;2023-02-28T00:08:47;101475.81;;;-1.11;99.62
25560;BME280;13450;49.374;8.584;2023-02-28T00:11:14;101484.94;;;-1.19;99.08
25560;BME280;13450;49.374;8.584;2023-02-28T00:13:42;101476.25;;;-1.19;100.00
25560;BME280;13450;49.374;8.584;2023-02-28T00:16:12;101479.25;;;-1.27;100.00
25560;BME280;13450;49.374;8.584;2023-02-28T00:18:38;101475.94;;;-1.30;100.00
25560;BME280;13450;49.374;8.584;2023-02-28T00:21:04;101477.72;;;-1.31;100.00
25560;BME280;13450;49.374;8.584;2023-02-28T00:23:30;101473.59;;;-1.35;100.00
25560;BME280;13450;49.374;8.584;2023-02-28T00:25:55;101478.13;;;-1.39;100.00
25560;BME280;13450;49.374;8.584;2023-02-28T00:28:21;101481.63;;;-1.38;100.00
25560;BME280;13450;49.374;8.584;2023-02-28T00:30:49;101480.09;;;-1.42;100.00
25560;BME280;13450;49.374;8.584;2023-02-28T00:33:14;101483.94;;;-1.50;100.00
25560;BME280;13450;49.374;8.584;2023-02-28T00:35:40;101477.00;;;-1.51;100.00
25560;BME280;13450;49.374;8.584;2023-02-28T00:38:05;101479.03;;;-1.56;100.00
25560;BME280;13450;49.374;8.584;2023-02-28T00:40:31;101475.63;;;-1.58;100.00
25560;BME280;13450;49.374;8.584;2023-02-28T00:42:59;101482.22;;;-1.67;100.00
25560;BME280;13450;49.374;8.584;2023-02-28T00:45:24;101475.50;;;-1.73;100.00
25560;BME280;13450;49.374;8.584;2023-02-28T00:47:49;101472.41;;;-1.81;100.00
25560;BME280;13450;49.374;8.584;2023-02-28T00:50:20;101482.00;;;-1.80;100.00
25560;BME280;13450;49.374;8.584;2023-02-28T00:52:46;101482.31;;;-1.86;100.00
25560;BME280;13450;49.374;8.584;2023-02-28T00:55:12;101472.13;;;-1.92;100.00
25560;BME280;13450;49.374;8.584;2023-02-28T00:57:37;101477.44;;;-1.94;100.00
25560;BME280;13450;49.374;8.584;2023-02-28T01:00:04;101482.09;;;-1.99;100.00
25560;BME280;13450;49.374;8.584;2023-02-28T01:02:29;101484.78;;;-2.01;100.00
25560;BME280;13450;49.374;8.584;2023-02-28T01:04:55;101485.09;;;-2.07;100.00
25560;BME280;13450;49.374;8.584;2023-02-28T01:07:22;101477.44;;;-2.12;100.00
25560;BME280;13450;49.374;8.584;2023-02-28T01:09:49;101476.91;;;-2.18;100.00
25560;BME280;13450;49.374;8.584;2023-02-28T01:12:15;101487.25;;;-2.15;100.00
25560;BME280;13450;49.374;8.584;2023-02-28T01:14:43;101475.91;;;-2.16;100.00
25560;BME280;13450;49.374;8.584;2023-02-28T01:17:08;101476.91;;;-2.18;100.00
25560;BME280;13450;49.374;8.584;2023-02-28T01:19:34;101476.91;;;-2.18;100.00
25560;BME280;13450;49.374;8.584;2023-02-28T01:22:01;101471.81;;;-2.21;100.00
25560;BME280;13450;49.374;8.584;2023-02-28T01:24:27;101473.66;;;-2.24;100.00
25560;BME280;13450;49.374;8.584;2023-02-28T01:26:52;101474.69;;;-2.26;100.00
25560;BME280;13450;49.374;8.584;2023-02-28T01:29:18;101481.69;;;-2.27;100.00
25560;BME280;13450;49.374;8.584;2023-02-28T01:31:43;101471.19;;;-2.27;100.00
25560;BME280;13450;49.374;8.584;2023-02-28T01:34:08;101474.59;;;-2.25;100.00
25560;BME280;13450;49.374;8.584;2023-02-28T01:36:34;101477.38;;;-2.28;100.00
25560;BME280;13450;49.374;8.584;2023-02-28T01:38:59;101477.38;;;-2.28;100.00
25560;BME280;13450;49.374;8.584;2023-02-28T01:41:27;101468.44;;;-2.24;100.00
25560;BME280;13450;49.374;8.584;2023-02-28T01:43:55;101472.19;;;-2.29;100.00
25560;BME280;13450;49.374;8.584;2023-02-28T01:46:21;101473.06;;;-2.29;100.00
25560;BME280;13450;49.374;8.584;2023-02-28T01:49:32;101468.75;;;-2.30;100.00
25560;BME280;13450;49.374;8.584;2023-02-28T01:51:44;101468.75;;;-2.30;100.00
25560;BME280;13450;49.374;8.584;2023-02-28T01:54:15;101470.56;;;-2.32;100.00
25560;BME280;13450;49.374;8.584;2023-02-28T01:56:45;101465.63;;;-2.38;100.00
25560;BME280;13450;49.374;8.584;2023-02-28T01:59:16;101467.19;;;-2.34;100.00
25560;BME280;13450;49.374;8.584;2023-02-28T02:01:44;101460.41;;;-2.38;100.00
25560;BME280;13450;49.374;8.584;2023-02-28T02:04:10;101457.78;;;-2.38;100.00
25560;BME280;13450;49.374;8.584;2023-02-28T02:06:43;101456.06;;;-2.39;100.00
25560;BME280;13450;49.374;8.584;2023-02-28T02:09:09;101452.66;;;-2.41;100.00
25560;BME280;13450;49.374;8.584;2023-02-28T02:11:35;101463.31;;;-2.44;100.00
25560;BME280;13450;49.374;8.584;2023-02-28T02:19:23;101440.78;;;-2.48;100.00
25560;BME280;13450;49.374;8.584;2023-02-28T02:22:17;101450.97;;;-2.42;100.00
25560;BME280;13450;49.374;8.584;2023-02-28T02:28:25;101446.94;;;-2.50;100.00
25560;BME280;13450;49.374;8.584;2023-02-28T02:34:23;101444.47;;;-2.53;100.00
25560;BME280;13450;49.374;8.584;2023-02-28T02:36:53;101445.47;;;-2.55;100.00
25560;BME280;13450;49.374;8.584;2023-02-28T02:39:31;101444.41;;;-2.51;100.00
25560;BME280;13450;49.374;8.584;2023-02-28T02:42:08;101443.56;;;-2.52;100.00
25560;BME280;13450;49.374;8.584;2023-02-28T02:44:46;101449.09;;;-2.58;100.00
25560;BME280;13450;49.374;8.584;2023-02-28T02:47:16;101447.53;;;-2.62;100.00
25560;BME280;13450;49.374;8.584;2023-02-28T02:49:48;101437.22;;;-2.65;100.00
25560;BME280;13450;49.374;8.584;2023-02-28T02:52:18;101449.41;;;-2.64;100.00
25560;BME280;13450;49.374;8.584;2023-02-28T02:54:48;101445.16;;;-2.67;100.00
25560;BME280;13450;49.374;8.584;2023-02-28T02:57:27;101447.72;;;-2.65;100.00
25560;BME280;13450;49.374;8.584;2023-02-28T02:59:55;101444.28;;;-2.67;100.00
25560;BME280;13450;49.374;8.584;2023-02-28T03:02:21;101443.47;;;-2.68;100.00
25560;BME280;13450;49.374;8.584;2023-02-28T03:04:59;101449.53;;;-2.67;100.00
25560;BME280;13450;49.374;8.584;2023-02-28T03:07:26;101450.59;;;-2.71;100.00
25560;BME280;13450;49.374;8.584;2023-02-28T03:09:53;101442.91;;;-2.74;100.00
25560;BME280;13450;49.374;8.584;2023-02-28T03:12:20;101444.59;;;-2.73;100.00
25560;BME280;13450;49.374;8.584;2023-02-28T03:25:56;101441.84;;;-2.70;100.00
25560;BME280;13450;49.374;8.584;2023-02-28T03:30:59;101438.91;;;-2.64;100.00
25560;BME280;13450;49.374;8.584;2023-02-28T03:33:36;101446.16;;;-2.69;100.00
25560;BME280;13450;49.374;8.584;2023-02-28T03:36:16;101444.28;;;-2.67;100.00
25560;BME280;13450;49.374;8.584;2023-02-28T03:39:08;101446.03;;;-2.66;100.00
25560;BME280;13450;49.374;8.584;2023-02-28T03:41:49;101445.84;;;-2.63;100.00
25560;BME280;13450;49.374;8.584;2023-02-28T03:44:22;101440.59;;;-2.63;100.00
25560;BME280;13450;49.374;8.584;2023-02-28T03:47:03;101443.84;;;-2.58;100.00
25560;BME280;13450;49.374;8.584;2023-02-28T03:49:36;101433.22;;;-2.55;100.00
25560;BME280;13450;49.374;8.584;2023-02-28T03:52:08;101440.78;;;-2.48;100.00
25560;BME280;13450;49.374;8.584;2023-02-28T03:54:41;101447.88;;;-2.51;100.00
25560;BME280;13450;49.374;8.584;2023-02-28T04:00:06;101443.56;;;-2.52;100.00
25560;BME280;13450;49.374;8.584;2023-02-28T04:02:34;101443.56;;;-2.52;100.00
25560;BME280;13450;49.374;8.584;2023-02-28T04:05:00;101445.25;;;-2.51;100.00
25560;BME280;13450;49.374;8.584;2023-02-28T04:07:29;101443.72;;;-2.55;100.00
25560;BME280;13450;49.374;8.584;2023-02-28T04:09:55;101434.91;;;-2.54;100.00
25560;BME280;13450;49.374;8.584;2023-02-28T04:12:20;101433.22;;;-2.55;100.00
25560;BME280;13450;49.374;8.584;2023-02-28T04:14:48;101435.97;;;-2.58;100.00
25560;BME280;13450;49.374;8.584;2023-02-28T04:17:13;101429.75;;;-2.55;100.00
25560;BME280;13450;49.374;8.584;2023-02-28T04:19:39;101438.78;;;-2.61;100.00
25560;BME280;13450;49.374;8.584;2023-02-28T04:22:04;101437.84;;;-2.60;100.00
25560;BME280;13450;49.374;8.584;2023-02-28T04:24:31;101447.53;;;-2.62;100.00
25560;BME280;13450;49.374;8.584;2023-02-28T04:26:57;101444.03;;;-2.61;100.00
25560;BME280;13450;49.374;8.584;2023-02-28T04:29:32;101436.16;;;-2.61;100.00
25560;BME280;13450;49.374;8.584;2023-02-28T04:31:58;101443.91;;;-2.59;100.00
25560;BME280;13450;49.374;8.584;2023-02-28T04:34:26;101437.91;;;-2.61;100.00
25560;BME280;13450;49.374;8.584;2023-02-28T04:36:54;101444.84;;;-2.60;100.00
25560;BME280;13450;49.374;8.584;2023-02-28T04:39:20;101435.09;;;-2.57;100.00
25560;BME280;13450;49.374;8.584;2023-02-28T04:41:46;101433.38;;;-2.58;100.00
25560;BME280;13450;49.374;8.584;2023-02-28T04:44:11;101435.09;;;-2.57;100.00
25560;BME280;13450;49.374;8.584;2023-02-28T04:46:37;101433.16;;;-2.53;100.00
25560;BME280;13450;49.374;8.584;2023-02-28T04:49:02;101431.16;;;-2.48;100.00
25560;BME280;13450;49.374;8.584;2023-02-28T04:51:28;101424.97;;;-2.47;100.00
25560;BME280;13450;49.374;8.584;2023-02-28T04:53:53;101430.00;;;-2.42;100.00
25560;BME280;13450;49.374;8.584;2023-02-28T04:56:19;101441.25;;;-2.40;100.00
25560;BME280;13450;49.374;8.584;2023-02-28T04:58:45;101429.63;;;-2.34;100.00
25560;BME280;13450;49.374;8.584;2023-02-28T05:01:18;101442.50;;;-2.30;100.00
25560;BME280;13450;49.374;8.584;2023-02-28T05:03:44;101445.75;;;-2.25;100.00
25560;BME280;13450;49.374;8.584;2023-02-28T05:06:11;101441.81;;;-2.16;100.00
25560;BME280;13450;49.374;8.584;2023-02-28T05:08:37;101445.91;;;-2.10;100.00
25560;BME280;13450;49.374;8.584;2023-02-28T05:11:03;101443.88;;;-2.05;100.00
25560;BME280;13450;49.374;8.584;2023-02-28T05:13:29;101446.38;;;-2.02;100.00
25560;BME280;13450;49.374;8.584;2023-02-28T05:15:55;101444.34;;;-1.97;100.00
25560;BME280;13450;49.374;8.584;2023-02-28T05:18:21;101446.81;;;-1.93;100.00
25560;BME280;13450;49.374;8.584;2023-02-28T05:20:46;101452.81;;;-1.91;100.00
25560;BME280;13450;49.374;8.584;2023-02-28T05:23:13;101444.72;;;-1.87;100.00
25560;BME280;13450;49.374;8.584;2023-02-28T05:25:39;101450.81;;;-1.86;100.00
25560;BME280;13450;49.374;8.584;2023-02-28T05:28:05;101448.91;;;-1.82;100.00
25560;BME280;13450;49.374;8.584;2023-02-28T05:30:34;101449.81;;;-1.84;100.00
25560;BME280;13450;49.374;8.584;2023-02-28T05:33:00;101461.78;;;-1.78;100.00
25560;BME280;13450;49.374;8.584;2023-02-28T05:35:25;101459.16;;;-1.78;100.00
25560;BME280;13450;49.374;8.584;2023-02-28T05:37:51;101453.81;;;-1.76;100.00
25560;BME280;13450;49.374;8.584;2023-02-28T05:40:17;101458.06;;;-1.74;100.00
25560;BME280;13450;49.374;8.584;2023-02-28T05:42:45;101457.31;;;-1.76;100.00
25560;BME280;13450;49.374;8.584;2023-02-28T05:45:11;101456.38;;;-1.75;100.00
25560;BME280;13450;49.374;8.584;2023-02-28T05:47:36;101462.38;;;-1.73;100.00
25560;BME280;13450;49.374;8.584;2023-02-28T05:50:03;101462.38;;;-1.73;100.00
25560;BME280;13450;49.374;8.584;2023-02-28T05:52:28;101460.53;;;-1.71;100.00
25560;BME280;13450;49.374;8.584;2023-02-28T05:54:55;101469.16;;;-1.68;100.00
25560;BME280;13450;49.374;8.584;2023-02-28T05:57:23;101460.53;;;-1.71;100.00
25560;BME280;13450;49.374;8.584;2023-02-28T05:59:48;101461.44;;;-1.72;100.00
25560;BME280;13450;49.374;8.584;2023-02-28T06:02:15;101463.16;;;-1.71;100.00
25560;BME280;13450;49.374;8.584;2023-02-28T06:04:41;101460.69;;;-1.74;100.00
25560;BME280;13450;49.374;8.584;2023-02-28T06:07:07;101466.09;;;-1.77;100.00
25560;BME280;13450;49.374;8.584;2023-02-28T06:09:33;101466.34;;;-1.81;100.00
25560;BME280;13450;49.374;8.584;2023-02-28T06:12:03;101459.28;;;-1.81;100.00
25560;BME280;13450;49.374;8.584;2023-02-28T06:14:31;101470.72;;;-1.82;100.00
25560;BME280;13450;49.374;8.584;2023-02-28T06:17:00;101473.41;;;-1.84;100.00
25560;BME280;13450;49.374;8.584;2023-02-28T06:19:25;101469.78;;;-1.81;100.00
25560;BME280;13450;49.374;8.584;2023-02-28T06:21:52;101474.28;;;-1.83;100.00
25560;BME280;13450;49.374;8.584;2023-02-28T06:24:21;101474.97;;;-1.79;100.00
25560;BME280;13450;49.374;8.584;2023-02-28T06:26:49;101483.56;;;-1.76;100.00
25560;BME280;13450;49.374;8.584;2023-02-28T06:29:14;101489.47;;;-1.72;100.00
25560;BME280;13450;49.374;8.584;2023-02-28T06:31:45;101487.69;;;-1.72;100.00
25560;BME280;13450;49.374;8.584;2023-02-28T06:34:11;101490.94;;;-1.66;100.00
25560;BME280;13450;49.374;8.584;2023-02-28T06:36:38;101490.16;;;-1.68;100.00
25560;BME280;13450;49.374;8.584;2023-02-28T06:39:03;101496.09;;;-1.65;100.00
25560;BME280;13450;49.374;8.584;2023-02-28T06:41:29;101496.81;;;-1.61;100.00
25560;BME280;13450;49.374;8.584;2023-02-28T06:43:55;101494.94;;;-1.59;100.00
25560;BME280;13450;49.374;8.584;2023-02-28T06:46:20;101497.25;;;-1.53;100.00
25560;BME280;13450;49.374;8.584;2023-02-28T06:48:46;101499.41;;;-1.43;100.00
25560;BME280;13450;49.374;8.584;2023-02-28T06:51:18;101504.16;;;-1.34;100.00
25560;BME280;13450;49.374;8.584;2023-02-28T06:53:45;101487.13;;;-1.27;100.00
25560;BME280;13450;49.374;8.584;2023-02-28T06:56:13;101494.69;;;-1.21;100.00
25560;BME280;13450;49.374;8.584;2023-02-28T06:58:38;101497.78;;;-1.12;100.00
25560;BME280;13450;49.374;8.584;2023-02-28T07:01:07;101495.75;;;-1.07;100.00
25560;BME280;13450;49.374;8.584;2023-02-28T07:03:32;101496.06;;;-0.97;100.00
25560;BME280;13450;49.374;8.584;2023-02-28T07:05:58;101501.84;;;-0.90;100.00
25560;BME280;13450;49.374;8.584;2023-02-28T07:08:24;101500.50;;;-0.82;100.00
25560;BME280;13450;49.374;8.584;2023-02-28T07:10:54;101513.22;;;-0.74;100.00
25560;BME280;13450;49.374;8.584;2023-02-28T07:13:20;101509.31;;;-0.67;100.00
25560;BME280;13450;49.374;8.584;2023-02-28T07:15:59;101519.50;;;-0.60;100.00
25560;BME280;13450;49.374;8.584;2023-02-28T07:18:26;101517.28;;;-0.52;100.00
25560;BME280;13450;49.374;8.584;2023-02-28T07:20:51;101518.81;;;-0.48;100.00
25560;BME280;13450;49.374;8.584;2023-02-28T07:23:17;101525.31;;;-0.39;100.00
25560;BME280;13450;49.374;8.584;2023-02-28T07:25:43;101526.59;;;-0.30;100.00
25560;BME280;13450;49.374;8.584;2023-02-28T07:28:09;101530.75;;;-0.26;100.00
25560;BME280;13450;49.374;8.584;2023-02-28T07:30:34;101522.34;;;-0.17;100.00
25560;BME280;13450;49.374;8.584;2023-02-28T07:33:02;101532.31;;;-0.07;100.00
25560;BME280;13450;49.374;8.584;2023-02-28T07:35:28;101522.13;;;0.03;100.00
25560;BME280;13450;49.374;8.584;2023-02-28T07:37:54;101528.44;;;0.15;100.00
25560;BME280;13450;49.374;8.584;2023-02-28T07:40:19;101530.06;;;0.17;100.00
25560;BME280;13450;49.374;8.584;2023-02-28T07:42:44;101534.28;;;0.20;100.00
25560;BME280;13450;49.374;8.584;2023-02-28T07:45:11;101530.53;;;0.24;100.00
25560;BME280;13450;49.374;8.584;2023-02-28T07:47:41;101527.34;;;0.19;100.00
25560;BME280;13450;49.374;8.584;2023-02-28T07:50:08;101529.59;;;0.25;100.00
25560;BME280;13450;49.374;8.584;2023-02-28T07:52:34;101524.72;;;0.33;100.00
25560;BME280;13450;49.374;8.584;2023-02-28T07:55:01;101536.78;;;0.37;100.00
25560;BME280;13450;49.374;8.584;2023-02-28T07:57:26;101530.78;;;0.50;100.00
25560;BME280;13450;49.374;8.584;2023-02-28T07:59:51;101538.88;;;0.61;100.00
25560;BME280;13450;49.374;8.584;2023-02-28T08:02:18;101535.50;;;0.59;100.00
25560;BME280;13450;49.374;8.584;2023-02-28T08:04:43;101524.34;;;0.54;100.00
25560;BME280;13450;49.374;8.584;2023-02-28T08:07:09;101533.59;;;0.47;100.00
25560;BME280;13450;49.374;8.584;2023-02-28T08:09:38;101538.78;;;0.48;100.00
25560;BME280;13450;49.374;8.584;2023-02-28T08:12:04;101529.38;;;0.59;100.00
25560;BME280;13450;49.374;8.584;2023-02-28T08:14:29;101538.88;;;0.61;100.00
25560;BME280;13450;49.374;8.584;2023-02-28T08:16:55;101540.06;;;0.56;100.00
25560;BME280;13450;49.374;8.584;2023-02-28T08:19:20;101529.84;;;0.51;100.00
25560;BME280;13450;49.374;8.584;2023-02-28T08:21:45;101538.69;;;0.50;100.00
25560;BME280;13450;49.374;8.584;2023-02-28T08:24:10;101529.84;;;0.51;100.00
25560;BME280;13450;49.374;8.584;2023-02-28T08:26:36;101533.97;;;0.55;100.00
25560;BME280;13450;49.374;8.584;2023-02-28T08:29:01;101529.28;;;0.60;100.00
25560;BME280;13450;49.374;8.584;2023-02-28T08:31:27;101527.59;;;0.59;100.00
25560;BME280;13450;49.374;8.584;2023-02-28T08:33:52;101521.19;;;0.63;100.00
25560;BME280;13450;49.374;8.584;2023-02-28T08:36:20;101522.66;;;0.68;100.00
25560;BME280;13450;49.374;8.584;2023-02-28T08:38:45;101529.66;;;0.69;100.00
25560;BME280;13450;49.374;8.584;2023-02-28T08:41:12;101532.38;;;0.67;100.00
25560;BME280;13450;49.374;8.584;2023-02-28T08:43:38;101528.41;;;0.74;100.00
25560;BME280;13450;49.374;8.584;2023-02-28T08:46:04;101527.19;;;0.80;100.00
25560;BME280;13450;49.374;8.584;2023-02-28T08:48:32;101535.66;;;0.85;100.00
25560;BME280;13450;49.374;8.584;2023-02-28T08:51:01;101529.09;;;0.93;100.00
25560;BME280;13450;49.374;8.584;2023-02-28T08:53:27;101525.22;;;0.98;100.00
25560;BME280;13450;49.374;8.584;2023-02-28T08:56:00;101524.56;;;1.09;100.00
25560;BME280;13450;49.374;8.584;2023-02-28T08:58:26;101534.13;;;1.25;100.00
25560;BME280;13450;49.374;8.584;2023-02-28T09:00:53;101529.63;;;1.27;99.16
25560;BME280;13450;49.374;8.584;2023-02-28T09:03:22;101532.03;;;1.30;96.89
25560;BME280;13450;49.374;8.584;2023-02-28T09:05:56;101523.53;;;1.39;96.79
25560;BME280;13450;49.374;8.584;2023-02-28T09:08:22;101530.84;;;1.49;95.70
25560;BME280;13450;49.374;8.584;2023-02-28T09:10:47;101530.06;;;1.61;93.55
25560;BME280;13450;49.374;8.584;2023-02-28T09:13:13;101528.53;;;1.72;92.86
25560;BME280;13450;49.374;8.584;2023-02-28T09:15:38;101526.44;;;1.77;92.40
25560;BME280;13450;49.374;8.584;2023-02-28T09:18:04;101529.00;;;1.78;90.84
25560;BME280;13450;49.374;8.584;2023-02-28T09:20:31;101532.81;;;1.87;89.72
25560;BME280;13450;49.374;8.584;2023-02-28T09:22:59;101525.03;;;1.99;89.06
25560;BME280;13450;49.374;8.584;2023-02-28T09:25:24;101527.78;;;2.10;88.24
25560;BME280;13450;49.374;8.584;2023-02-28T09:27:49;101524.13;;;2.26;87.11
25560;BME280;13450;49.374;8.584;2023-02-28T09:30:15;101522.34;;;2.39;85.34
25560;BME280;13450;49.374;8.584;2023-02-28T09:32:41;101528.16;;;2.44;84.50
25560;BME280;13450;49.374;8.584;2023-02-28T09:35:07;101518.19;;;2.61;83.35
25560;BME280;13450;49.374;8.584;2023-02-28T09:37:39;101520.75;;;2.76;82.46
25560;BME280;13450;49.374;8.584;2023-02-28T09:40:05;101525.06;;;2.90;80.90
25560;BME280;13450;49.374;8.584;2023-02-28T09:42:33;101513.00;;;2.85;79.84
25560;BME280;13450;49.374;8.584;2023-02-28T09:45:01;101516.38;;;3.00;80.10
25560;BME280;13450;49.374;8.584;2023-02-28T09:47:33;101518.56;;;3.07;79.25
25560;BME280;13450;49.374;8.584;2023-02-28T09:52:45;101511.16;;;3.12;76.95
25560;BME280;13450;49.374;8.584;2023-02-28T09:55:22;101516.09;;;3.30;75.68
25560;BME280;13450;49.374;8.584;2023-02-28T09:57:52;101520.72;;;3.39;74.23
25560;BME280;13450;49.374;8.584;2023-02-28T10:05:54;101519.81;;;3.51;72.11
25560;BME280;13450;49.374;8.584;2023-02-28T10:08:36;101519.13;;;3.61;71.25
25560;BME280;13450;49.374;8.584;2023-02-28T10:11:09;101518.47;;;3.70;71.16
25560;BME280;13450;49.374;8.584;2023-02-28T10:14:00;101519.69;;;3.77;69.64
25560;BME280;13450;49.374;8.584;2023-02-28T10:19:05;101521.84;;;4.08;67.32
25560;BME280;13450;49.374;8.584;2023-02-28T10:21:39;101520.47;;;4.27;66.34
25560;BME280;13450;49.374;8.584;2023-02-28T10:24:28;101523.22;;;4.25;65.17
25560;BME280;13450;49.374;8.584;2023-02-28T10:26:59;101519.28;;;4.42;64.63
25560;BME280;13450;49.374;8.584;2023-02-28T10:29:25;101519.44;;;4.52;65.46
25560;BME280;13450;49.374;8.584;2023-02-28T10:31:50;101526.63;;;4.50;63.65
25560;BME280;13450;49.374;8.584;2023-02-28T10:34:16;101520.91;;;4.79;62.76
25560;BME280;13450;49.374;8.584;2023-02-28T10:36:42;101523.06;;;4.74;61.91
25560;BME280;13450;49.374;8.584;2023-02-28T10:42:05;101521.34;;;4.96;59.53
25560;BME280;13450;49.374;8.584;2023-02-28T10:44:43;101516.75;;;5.21;59.53
25560;BME280;13450;49.374;8.584;2023-02-28T10:47:14;101508.94;;;5.08;58.99
25560;BME280;13450;49.374;8.584;2023-02-28T10:49:47;101518.47;;;5.10;59.10
25560;BME280;13450;49.374;8.584;2023-02-28T10:52:14;101513.41;;;5.07;60.44
25560;BME280;13450;49.374;8.584;2023-02-28T10:55:15;101502.50;;;5.33;59.21
25560;BME280;13450;49.374;8.584;2023-02-28T10:57:40;101507.41;;;5.82;58.09
25560;BME280;13450;49.374;8.584;2023-02-28T11:00:21;101507.75;;;7.75;54.65
25560;BME280;13450;49.374;8.584;2023-02-28T11:02:49;101501.75;;;9.44;46.69
25560;BME280;13450;49.374;8.584;2023-02-28T11:10:31;101502.59;;;12.38;38.68
25560;BME280;13450;49.374;8.584;2023-02-28T11:13:01;101498.13;;;13.42;35.92
25560;BME280;13450;49.374;8.584;2023-02-28T11:15:32;101497.94;;;13.12;34.43
25560;BME280;13450;49.374;8.584;2023-02-28T11:18:22;101492.31;;;15.21;31.35
25560;BME280;13450;49.374;8.584;2023-02-28T11:20:49;101490.91;;;16.48;29.22
25560;BME280;13450;49.374;8.584;2023-02-28T11:23:16;101481.53;;;17.89;28.48
25560;BME280;13450;49.374;8.584;2023-02-28T11:25:52;101485.84;;;17.29;26.91
25560;BME280;13450;49.374;8.584;2023-02-28T11:31:05;101480.13;;;19.51;24.72
25560;BME280;13450;49.374;8.584;2023-02-28T11:36:14;101477.91;;;19.66;23.19
25560;BME280;13450;49.374;8.584;2023-02-28T11:38:41;101474.47;;;21.15;23.43
25560;BME280;13450;49.374;8.584;2023-02-28T11:44:09;101477.97;;;17.75;25.06
25560;BME280;13450;49.374;8.584;2023-02-28T11:46:57;101480.59;;;17.21;25.26
25560;BME280;13450;49.374;8.584;2023-02-28T12:00:34;101470.16;;;18.53;23.78
25560;BME280;13450;49.374;8.584;2023-02-28T12:06:06;101474.16;;;18.43;23.31
25560;BME280;13450;49.374;8.584;2023-02-28T12:08:41;101471.78;;;19.20;23.05
25560;BME280;13450;49.374;8.584;2023-02-28T12:19:58;101482.94;;;19.37;21.97
25560;BME280;13450;49.374;8.584;2023-02-28T12:22:31;101476.84;;;20.93;21.48
25560;BME280;13450;49.374;8.584;2023-02-28T12:25:21;101463.97;;;21.31;21.28
25560;BME280;13450;49.374;8.584;2023-02-28T12:27:49;101474.66;;;19.25;21.98
25560;BME280;13450;49.374;8.584;2023-02-28T12:30:29;101466.28;;;17.95;23.14
25560;BME280;13450;49.374;8.584;2023-02-28T12:33:11;101474.94;;;16.25;24.76
25560;BME280;13450;49.374;8.584;2023-02-28T12:35:58;101467.16;;;14.99;26.71
25560;BME280;13450;49.374;8.584;2023-02-28T12:38:27;101464.63;;;13.92;29.82
25560;BME280;13450;49.374;8.584;2023-02-28T12:41:00;101463.94;;;12.64;29.00
25560;BME280;13450;49.374;8.584;2023-02-28T12:43:33;101481.81;;;11.41;30.87
25560;BME280;13450;49.374;8.584;2023-02-28T12:46:11;101473.81;;;11.66;33.89
25560;BME280;13450;49.374;8.584;2023-02-28T12:48:44;101469.94;;;11.60;31.21
25560;BME280;13450;49.374;8.584;2023-02-28T12:51:15;101464.09;;;11.56;32.58
25560;BME280;13450;49.374;8.584;2023-02-28T13:02:18;101449.25;;;17.47;25.12
25560;BME280;13450;49.374;8.584;2023-02-28T13:05:16;101447.09;;;18.30;24.55
25560;BME280;13450;49.374;8.584;2023-02-28T13:10:45;101436.94;;;18.12;24.34
25560;BME280;13450;49.374;8.584;2023-02-28T13:13:18;101445.06;;;17.91;24.50
25560;BME280;13450;49.374;8.584;2023-02-28T13:16:06;101444.03;;;17.99;23.80
25560;BME280;13450;49.374;8.584;2023-02-28T13:18:34;101448.16;;;15.94;26.45
25560;BME280;13450;49.374;8.584;2023-02-28T13:21:01;101459.56;;;14.27;28.90
25560;BME280;13450;49.374;8.584;2023-02-28T13:26:12;101450.56;;;14.65;27.77
25560;BME280;13450;49.374;8.584;2023-02-28T13:29:00;101449.09;;;13.40;29.00
25560;BME280;13450;49.374;8.584;2023-02-28T13:31:29;101453.34;;;13.03;29.25
25560;BME280;13450;49.374;8.584;2023-02-28T13:36:31;101450.38;;;17.04;26.90
25560;BME280;13450;49.374;8.584;2023-02-28T13:39:02;101446.19;;;16.88;26.39
25560;BME280;13450;49.374;8.584;2023-02-28T13:44:13;101454.22;;;17.70;24.25
25560;BME280;13450;49.374;8.584;2023-02-28T13:49:28;101446.22;;;20.30;21.70
25560;BME280;13450;49.374;8.584;2023-02-28T13:57:42;101454.09;;;21.61;21.07
25560;BME280;13450;49.374;8.584;2023-02-28T14:00:23;101447.50;;;21.26;20.65
25560;BME280;13450;49.374;8.584;2023-02-28T14:05:37;101442.59;;;21.71;21.63
25560;BME280;13450;49.374;8.584;2023-02-28T14:08:07;101444.63;;;20.41;20.88
25560;BME280;13450;49.374;8.584;2023-02-28T14:10:49;101448.84;;;19.16;22.10
25560;BME280;13450;49.374;8.584;2023-02-28T14:13:43;101451.16;;;19.95;21.62
25560;BME280;13450;49.374;8.584;2023-02-28T14:16:26;101460.06;;;19.77;22.25
25560;BME280;13450;49.374;8.584;2023-02-28T14:19:00;101451.28;;;19.82;22.56
25560;BME280;13450;49.374;8.584;2023-02-28T14:21:32;101450.97;;;19.07;22.67
25560;BME280;13450;49.374;8.584;2023-02-28T14:36:27;101453.22;;;16.82;24.69
25560;BME280;13450;49.374;8.584;2023-02-28T14:39:03;101444.91;;;16.83;24.59
25560;BME280;13450;49.374;8.584;2023-02-28T14:41:33;101450.31;;;15.55;26.17
25560;BME280;13450;49.374;8.584;2023-02-28T14:44:12;101443.34;;;14.50;27.83
25560;BME280;13450;49.374;8.584;2023-02-28T14:46:40;101447.25;;;14.33;27.76
25560;BME280;13450;49.374;8.584;2023-02-28T14:49:13;101450.41;;;14.21;27.91
25560;BME280;13450;49.374;8.584;2023-02-28T14:51:40;101446.75;;;13.05;29.29
25560;BME280;13450;49.374;8.584;2023-02-28T14:54:14;101452.59;;;12.46;30.12
25560;BME280;13450;49.374;8.584;2023-02-28T14:56:41;101445.94;;;12.16;30.62
25560;BME280;13450;49.374;8.584;2023-02-28T14:59:26;101444.09;;;12.74;30.84